Time;durP1;ratioP1;P1;durP2;ratioP2;P2;SDS_P1;SDS_P2;PMS_P1;PMS_P2;Temp;Humidity;BMP_temperature;BMP_pressure;BME280_temperature;BME280_humidity;BME280_pressure;Samples;Min_cycle;Max_cycle;Signal;HPM_P1;HPM_P2
2022/06/28 00:01:36;;;;;;;;;;;13.80;99.90;;;;;;5002511;28;19925;-74
2022/06/28 00:04:02;;;;;;;;;;;13.80;99.90;;;;;;5005683;28;19917;-74
2022/06/28 00:06:28;;;;;;;;;;;13.80;99.90;;;;;;5003778;28;19921;-74
2022/06/28 00:08:53;;;;;;;;;;;13.80;99.90;;;;;;5003277;28;19963;-74
2022/06/28 00:11:19;;;;;;;;;;;13.90;99.90;;;;;;5000640;28;19921;-73
2022/06/28 00:13:44;;;;;;;;;;;13.90;99.90;;;;;;5003736;28;19977;-74
2022/06/28 00:16:15;;;;;;;;;;;13.90;99.90;;;;;;5004723;28;19925;-73
2022/06/28 00:18:40;;;;;;;;;;;13.90;99.90;;;;;;5004435;28;20260;-74
2022/06/28 00:21:06;;;;;;;;;;;13.90;99.90;;;;;;5002287;28;20024;-74
2022/06/28 00:23:32;;;;;;;;;;;13.90;99.90;;;;;;5024557;28;19921;-73
2022/06/28 00:25:58;;;;;;;;;;;13.90;99.90;;;;;;4992501;28;19917;-74
2022/06/28 00:28:24;;;;;;;;;;;13.90;99.90;;;;;;5007626;28;20580;-74
2022/06/28 00:30:50;;;;;;;;;;;13.90;99.90;;;;;;5012537;28;20349;-74
2022/06/28 00:33:15;;;;;;;;;;;13.90;99.90;;;;;;5004821;28;20273;-74
2022/06/28 00:35:41;;;;;;;;;;;13.80;99.90;;;;;;4994750;28;19921;-75
2022/06/28 00:38:07;;;;;;;;;;;13.80;99.90;;;;;;5007481;28;20575;-75
2022/06/28 00:40:33;;;;;;;;;;;13.80;99.90;;;;;;4990036;28;20415;-74
2022/06/28 00:42:58;;;;;;;;;;;13.70;99.90;;;;;;5000083;28;20444;-74
2022/06/28 00:45:25;;;;;;;;;;;13.70;99.90;;;;;;4990423;28;19925;-73
2022/06/28 00:47:51;;;;;;;;;;;13.70;99.90;;;;;;5006988;28;19968;-74
2022/06/28 00:50:17;;;;;;;;;;;13.70;99.90;;;;;;5005348;28;19969;-74
2022/06/28 00:53:02;;;;;;;;;;;13.70;99.90;;;;;;4995375;28;19970;-75
2022/06/28 00:55:28;;;;;;;;;;;13.60;99.90;;;;;;5005391;28;19995;-74
2022/06/28 00:57:53;;;;;;;;;;;13.60;99.90;;;;;;5004288;28;20360;-74
2022/06/28 01:00:19;;;;;;;;;;;13.60;99.90;;;;;;4986572;28;20453;-74
2022/06/28 01:02:45;;;;;;;;;;;13.50;99.90;;;;;;5006756;28;20583;-74
2022/06/28 01:05:10;;;;;;;;;;;13.60;99.90;;;;;;5006517;28;20260;-74
2022/06/28 01:07:36;;;;;;;;;;;13.50;99.90;;;;;;5005155;28;19937;-74
2022/06/28 01:10:02;;;;;;;;;;;13.50;99.90;;;;;;5005603;28;19921;-75
2022/06/28 01:12:27;;;;;;;;;;;13.50;99.90;;;;;;5006452;28;19924;-74
2022/06/28 01:14:53;;;;;;;;;;;13.50;99.90;;;;;;5007404;28;19944;-74
2022/06/28 01:17:18;;;;;;;;;;;13.50;99.90;;;;;;5007213;28;19918;-74
2022/06/28 01:19:44;;;;;;;;;;;13.40;99.90;;;;;;5008110;28;20276;-74
2022/06/28 01:22:10;;;;;;;;;;;13.50;99.90;;;;;;5008593;28;19930;-74
2022/06/28 01:24:35;;;;;;;;;;;13.40;99.90;;;;;;5007755;28;19984;-73
2022/06/28 01:27:01;;;;;;;;;;;13.40;99.90;;;;;;5008042;28;19917;-74
2022/06/28 01:29:27;;;;;;;;;;;13.40;99.90;;;;;;4990987;28;20350;-74
2022/06/28 01:31:53;;;;;;;;;;;13.30;99.90;;;;;;5005456;28;20291;-74
2022/06/28 01:34:19;;;;;;;;;;;13.30;99.90;;;;;;4990934;28;20319;-74
2022/06/28 01:36:45;;;;;;;;;;;13.30;99.90;;;;;;5004567;28;19976;-74
2022/06/28 01:39:10;;;;;;;;;;;13.30;99.90;;;;;;5004293;28;19921;-74
2022/06/28 01:41:36;;;;;;;;;;;13.30;99.90;;;;;;5008799;28;19917;-74
2022/06/28 01:44:03;;;;;;;;;;;13.20;99.90;;;;;;5006483;28;19973;-74
2022/06/28 01:46:29;;;;;;;;;;;13.30;99.90;;;;;;5008326;28;19925;-76
2022/06/28 01:48:55;;;;;;;;;;;13.30;99.90;;;;;;5004318;28;19921;-74
2022/06/28 01:51:21;;;;;;;;;;;13.20;99.90;;;;;;5006669;28;19923;-74
2022/06/28 01:53:46;;;;;;;;;;;13.20;99.90;;;;;;5005641;28;19921;-73
2022/06/28 01:56:12;;;;;;;;;;;13.20;99.90;;;;;;5003207;28;19971;-75
2022/06/28 01:58:39;;;;;;;;;;;13.20;99.90;;;;;;5002153;28;19963;-74
2022/06/28 02:01:04;;;;;;;;;;;13.20;99.90;;;;;;5003384;28;19931;-75
2022/06/28 02:03:30;;;;;;;;;;;13.10;99.90;;;;;;4981362;28;19925;-74
2022/06/28 02:05:56;;;;;;;;;;;13.10;99.90;;;;;;5006171;28;19921;-74
2022/06/28 02:08:21;;;;;;;;;;;13.10;99.90;;;;;;4988421;28;19944;-74
2022/06/28 02:10:47;;;;;;;;;;;13.10;99.90;;;;;;5005629;28;20451;-75
2022/06/28 02:13:12;;;;;;;;;;;13.00;99.90;;;;;;4988757;28;20630;-74
2022/06/28 02:15:38;;;;;;;;;;;13.00;99.90;;;;;;4997997;28;20007;-74
2022/06/28 02:18:04;;;;;;;;;;;13.00;99.90;;;;;;5001008;28;19944;-74
2022/06/28 02:20:29;;;;;;;;;;;12.90;99.90;;;;;;4970243;28;20030;-73
2022/06/28 02:22:55;;;;;;;;;;;12.90;99.90;;;;;;4989087;28;19925;-74
2022/06/28 02:25:20;;;;;;;;;;;12.90;99.90;;;;;;4998305;28;19940;-74
2022/06/28 02:27:47;;;;;;;;;;;12.90;99.90;;;;;;4988036;28;19956;-74
2022/06/28 02:30:13;;;;;;;;;;;12.90;99.90;;;;;;5000495;28;19963;-74
2022/06/28 02:32:38;;;;;;;;;;;12.90;99.90;;;;;;5005050;28;19917;-74
2022/06/28 02:40:33;;;;;;;;;;;12.80;99.90;;;;;;5002968;28;19926;-74
2022/06/28 02:42:59;;;;;;;;;;;12.80;99.90;;;;;;4988609;28;19956;-74
2022/06/28 02:45:25;;;;;;;;;;;12.80;99.90;;;;;;5000799;28;19924;-74
2022/06/28 02:47:51;;;;;;;;;;;12.80;99.90;;;;;;5002382;28;20001;-75
2022/06/28 02:50:17;;;;;;;;;;;12.80;99.90;;;;;;5002179;28;19925;-75
2022/06/28 02:52:43;;;;;;;;;;;12.80;99.90;;;;;;5004219;28;19937;-74
2022/06/28 02:55:09;;;;;;;;;;;12.80;99.90;;;;;;5001228;28;19925;-75
2022/06/28 02:57:36;;;;;;;;;;;12.80;99.90;;;;;;5005470;28;19948;-74
2022/06/28 03:00:05;;;;;;;;;;;12.70;99.90;;;;;;5001980;28;19918;-74
2022/06/28 03:02:31;;;;;;;;;;;12.70;99.90;;;;;;5002690;28;19921;-74
2022/06/28 03:04:56;;;;;;;;;;;12.70;99.90;;;;;;5002517;28;19917;-74
2022/06/28 03:07:22;;;;;;;;;;;12.70;99.90;;;;;;4972398;28;19917;-74
2022/06/28 03:09:47;;;;;;;;;;;12.70;99.90;;;;;;5001333;28;19938;-74
2022/06/28 03:12:13;;;;;;;;;;;12.70;99.90;;;;;;5001958;28;20008;-75
2022/06/28 03:14:38;;;;;;;;;;;12.70;99.90;;;;;;5002117;28;19936;-74
2022/06/28 03:17:04;;;;;;;;;;;12.60;99.90;;;;;;5004332;28;19917;-74
2022/06/28 03:19:30;;;;;;;;;;;12.60;99.90;;;;;;5002905;28;19963;-74
2022/06/28 03:21:55;;;;;;;;;;;12.60;99.90;;;;;;4998434;28;19936;-74
2022/06/28 03:24:21;;;;;;;;;;;12.60;99.90;;;;;;5007007;28;19972;-75
2022/06/28 03:26:46;;;;;;;;;;;12.60;99.90;;;;;;5002930;28;19953;-74
2022/06/28 03:29:12;;;;;;;;;;;12.60;99.90;;;;;;4998303;28;20319;-74
2022/06/28 03:31:37;;;;;;;;;;;12.50;99.90;;;;;;5005282;28;19918;-73
2022/06/28 03:34:03;;;;;;;;;;;12.60;99.90;;;;;;5004403;28;19967;-74
2022/06/28 03:36:29;;;;;;;;;;;12.50;99.90;;;;;;5004420;28;19921;-74
2022/06/28 03:38:54;;;;;;;;;;;12.50;99.90;;;;;;5002571;28;19921;-74
2022/06/28 03:41:23;;;;;;;;;;;12.50;99.90;;;;;;4985041;28;19924;-74
2022/06/28 03:43:49;;;;;;;;;;;12.50;99.90;;;;;;4989365;28;19917;-74
2022/06/28 03:46:15;;;;;;;;;;;12.50;99.90;;;;;;5002959;28;19985;-74
2022/06/28 03:48:40;;;;;;;;;;;12.50;99.90;;;;;;5000606;28;19941;-73
2022/06/28 03:51:06;;;;;;;;;;;12.50;99.90;;;;;;5005246;28;19921;-73
2022/06/28 03:53:31;;;;;;;;;;;12.50;99.90;;;;;;5000852;28;20029;-74
2022/06/28 03:55:57;;;;;;;;;;;12.50;99.90;;;;;;5001739;28;20019;-74
2022/06/28 03:58:22;;;;;;;;;;;12.50;99.90;;;;;;5014101;28;19972;-74
2022/06/28 04:00:49;;;;;;;;;;;12.50;99.90;;;;;;5006149;28;19932;-74
2022/06/28 04:03:15;;;;;;;;;;;12.50;99.90;;;;;;4986800;28;19921;-74
2022/06/28 04:05:40;;;;;;;;;;;12.50;99.90;;;;;;5007251;28;19968;-74
2022/06/28 04:08:08;;;;;;;;;;;12.50;99.90;;;;;;5005220;28;19966;-74
2022/06/28 04:10:34;;;;;;;;;;;12.50;99.90;;;;;;5005872;28;20011;-74
2022/06/28 04:12:59;;;;;;;;;;;12.50;99.90;;;;;;5005706;28;19921;-74
2022/06/28 04:15:25;;;;;;;;;;;12.50;99.90;;;;;;5008261;28;19925;-74
2022/06/28 04:17:51;;;;;;;;;;;12.50;99.90;;;;;;5006185;28;19928;-73
2022/06/28 04:20:16;;;;;;;;;;;12.50;99.90;;;;;;4992848;28;19933;-74
2022/06/28 04:22:42;;;;;;;;;;;12.50;99.90;;;;;;5008146;28;19917;-74
2022/06/28 04:25:07;;;;;;;;;;;12.50;99.90;;;;;;4990035;28;20264;-74
2022/06/28 04:27:33;;;;;;;;;;;12.50;99.90;;;;;;4989177;28;19917;-74
2022/06/28 04:29:59;;;;;;;;;;;12.50;99.90;;;;;;5007739;28;19917;-74
2022/06/28 04:32:25;;;;;;;;;;;12.60;99.90;;;;;;5002976;28;19992;-73
2022/06/28 04:34:51;;;;;;;;;;;12.50;99.90;;;;;;5008236;28;19936;-74
2022/06/28 04:37:16;;;;;;;;;;;12.50;99.90;;;;;;4991858;28;19928;-74
2022/06/28 04:39:42;;;;;;;;;;;12.60;99.90;;;;;;5001669;28;19928;-74
2022/06/28 04:42:08;;;;;;;;;;;12.60;99.90;;;;;;5004334;28;19924;-74
2022/06/28 04:44:33;;;;;;;;;;;12.60;99.90;;;;;;5007779;28;19924;-73
2022/06/28 04:47:00;;;;;;;;;;;12.60;99.90;;;;;;5002700;28;20012;-73
2022/06/28 04:49:26;;;;;;;;;;;12.70;99.90;;;;;;5005847;28;19922;-74
2022/06/28 04:51:51;;;;;;;;;;;12.70;99.90;;;;;;5007268;28;19925;-74
2022/06/28 04:54:17;;;;;;;;;;;12.70;99.90;;;;;;5008621;28;19922;-74
2022/06/28 04:56:43;;;;;;;;;;;12.70;99.90;;;;;;5008615;28;19930;-74
2022/06/28 04:59:08;;;;;;;;;;;12.70;99.90;;;;;;4991009;28;19918;-74
2022/06/28 05:01:34;;;;;;;;;;;12.80;99.90;;;;;;5003296;28;19921;-74
2022/06/28 05:03:59;;;;;;;;;;;12.80;99.90;;;;;;5017689;28;20653;-73
2022/06/28 05:06:25;;;;;;;;;;;12.80;99.90;;;;;;4989409;28;19918;-73
2022/06/28 05:08:51;;;;;;;;;;;12.90;99.90;;;;;;5005197;28;19918;-74
2022/06/28 05:11:16;;;;;;;;;;;12.90;99.90;;;;;;5012258;28;19943;-73
2022/06/28 05:13:42;;;;;;;;;;;12.90;99.90;;;;;;5003167;28;19932;-73
2022/06/28 05:16:07;;;;;;;;;;;13.00;99.90;;;;;;5004620;28;19934;-74
2022/06/28 05:18:33;;;;;;;;;;;13.10;99.90;;;;;;5003977;28;19964;-74
2022/06/28 05:20:59;;;;;;;;;;;13.10;99.90;;;;;;4999422;28;19925;-74
2022/06/28 05:23:25;;;;;;;;;;;13.10;99.90;;;;;;4999271;28;19917;-74
2022/06/28 05:25:50;;;;;;;;;;;13.20;99.90;;;;;;5005607;28;19918;-74
2022/06/28 05:28:16;;;;;;;;;;;13.30;99.90;;;;;;5005806;28;19917;-74
2022/06/28 05:30:42;;;;;;;;;;;13.30;99.90;;;;;;5002227;28;19918;-74
2022/06/28 05:33:07;;;;;;;;;;;13.40;99.90;;;;;;4987597;28;19924;-74
2022/06/28 05:35:33;;;;;;;;;;;13.40;99.90;;;;;;4999296;28;20000;-75
2022/06/28 05:38:00;;;;;;;;;;;13.50;99.90;;;;;;4995282;28;19968;-73
2022/06/28 05:40:26;;;;;;;;;;;13.60;99.90;;;;;;5003742;28;19927;-74
2022/06/28 05:42:51;;;;;;;;;;;13.60;99.90;;;;;;5003143;28;19918;-74
2022/06/28 05:45:17;;;;;;;;;;;13.70;99.90;;;;;;4988763;28;20023;-74
2022/06/28 05:47:43;;;;;;;;;;;13.80;99.90;;;;;;5004256;28;19964;-76
2022/06/28 05:50:08;;;;;;;;;;;13.90;99.90;;;;;;5012485;28;19925;-71
2022/06/28 05:52:34;;;;;;;;;;;14.00;99.90;;;;;;5015951;28;19917;-72
2022/06/28 05:54:59;;;;;;;;;;;14.00;99.90;;;;;;5025940;28;19928;-71
2022/06/28 05:57:25;;;;;;;;;;;14.10;99.90;;;;;;5009960;28;19924;-71
2022/06/28 05:59:50;;;;;;;;;;;14.20;99.90;;;;;;5015347;28;19956;-71
2022/06/28 06:02:16;;;;;;;;;;;14.20;99.90;;;;;;5010024;28;19925;-71
2022/06/28 06:04:42;;;;;;;;;;;14.40;99.90;;;;;;5013969;28;19965;-71
2022/06/28 06:07:07;;;;;;;;;;;14.50;99.90;;;;;;5011098;28;20257;-71
2022/06/28 06:09:33;;;;;;;;;;;14.50;99.90;;;;;;5020570;28;19960;-71
2022/06/28 06:11:58;;;;;;;;;;;14.60;99.90;;;;;;5010167;28;19917;-71
2022/06/28 06:14:24;;;;;;;;;;;14.60;99.90;;;;;;5008621;28;19917;-72
2022/06/28 06:16:50;;;;;;;;;;;14.70;99.90;;;;;;5000809;28;19921;-72
2022/06/28 06:19:16;;;;;;;;;;;14.70;99.90;;;;;;5016332;28;19969;-71
2022/06/28 06:21:42;;;;;;;;;;;14.80;99.90;;;;;;5012970;28;19928;-72
2022/06/28 06:24:08;;;;;;;;;;;14.90;99.90;;;;;;5011400;28;19922;-74
2022/06/28 06:26:33;;;;;;;;;;;15.00;99.90;;;;;;5008733;28;20644;-74
2022/06/28 06:29:00;;;;;;;;;;;15.10;99.90;;;;;;5006361;28;19952;-75
2022/06/28 06:31:25;;;;;;;;;;;15.20;99.90;;;;;;5048079;23;19929;-73
2022/06/28 06:33:52;;;;;;;;;;;15.20;99.90;;;;;;5028221;28;19924;-73
2022/06/28 06:36:17;;;;;;;;;;;15.40;99.90;;;;;;5030791;28;19921;-73
2022/06/28 06:38:43;;;;;;;;;;;15.40;99.90;;;;;;5031213;28;20008;-73
2022/06/28 06:41:09;;;;;;;;;;;15.50;99.90;;;;;;5027361;28;19978;-73
2022/06/28 06:43:34;;;;;;;;;;;15.60;99.90;;;;;;5015953;28;19932;-73
2022/06/28 06:46:00;;;;;;;;;;;15.70;99.90;;;;;;5015118;28;19917;-73
2022/06/28 06:48:25;;;;;;;;;;;15.80;99.90;;;;;;5010379;28;19923;-73
2022/06/28 06:50:51;;;;;;;;;;;15.90;99.90;;;;;;5010208;28;19959;-73
2022/06/28 06:53:19;;;;;;;;;;;16.00;99.90;;;;;;4994046;28;19971;-73
2022/06/28 06:55:46;;;;;;;;;;;16.10;99.90;;;;;;5015097;28;19971;-73
2022/06/28 06:58:12;;;;;;;;;;;16.20;99.90;;;;;;5011591;28;19921;-73
2022/06/28 07:00:37;;;;;;;;;;;16.20;99.90;;;;;;5011272;28;20004;-73
2022/06/28 07:03:03;;;;;;;;;;;16.40;99.90;;;;;;5011310;28;20008;-73
2022/06/28 07:05:29;;;;;;;;;;;16.50;99.90;;;;;;5013830;28;19927;-73
2022/06/28 07:07:54;;;;;;;;;;;16.60;99.90;;;;;;5011175;28;19917;-73
2022/06/28 07:10:20;;;;;;;;;;;16.60;99.90;;;;;;5015980;28;19963;-73
2022/06/28 07:12:46;;;;;;;;;;;16.70;99.90;;;;;;5010654;28;19924;-73
2022/06/28 07:15:12;;;;;;;;;;;16.80;99.90;;;;;;5006796;28;19979;-73
2022/06/28 07:17:37;;;;;;;;;;;16.90;99.90;;;;;;5010521;28;20032;-73
2022/06/28 07:20:03;;;;;;;;;;;17.00;99.90;;;;;;5006880;28;19918;-73
2022/06/28 07:22:29;;;;;;;;;;;17.10;99.90;;;;;;5017625;28;20690;-73
2022/06/28 07:24:56;;;;;;;;;;;17.20;99.90;;;;;;5008647;28;20020;-73
2022/06/28 07:27:22;;;;;;;;;;;17.30;99.90;;;;;;5008017;28;19951;-73
2022/06/28 07:29:48;;;;;;;;;;;17.30;99.90;;;;;;5013417;28;20303;-73
2022/06/28 07:32:15;;;;;;;;;;;17.40;99.90;;;;;;5008054;28;19925;-73
2022/06/28 07:34:41;;;;;;;;;;;17.50;99.90;;;;;;4996496;28;19921;-73
2022/06/28 07:37:07;;;;;;;;;;;17.70;99.90;;;;;;5007330;28;19917;-73
2022/06/28 07:39:33;;;;;;;;;;;17.70;99.90;;;;;;5011377;28;19924;-73
2022/06/28 07:41:59;;;;;;;;;;;17.80;99.90;;;;;;5010589;28;19921;-73
2022/06/28 07:44:24;;;;;;;;;;;17.90;99.90;;;;;;5007952;28;20010;-73
2022/06/28 07:46:50;;;;;;;;;;;18.00;99.90;;;;;;5012164;28;19957;-73
2022/06/28 07:49:16;;;;;;;;;;;18.00;99.90;;;;;;5011793;28;19928;-73
2022/06/28 07:54:26;;;;;;;;;;;18.10;99.90;;;;;;4999648;28;19917;-73
2022/06/28 07:56:51;;;;;;;;;;;18.10;99.90;;;;;;5022641;28;19921;-73
2022/06/28 07:59:17;;;;;;;;;;;18.10;99.90;;;;;;5009546;28;20386;-73
2022/06/28 08:01:42;;;;;;;;;;;18.20;99.90;;;;;;4992744;28;19976;-73
2022/06/28 08:04:09;;;;;;;;;;;18.40;99.90;;;;;;5012122;28;20326;-73
2022/06/28 08:06:35;;;;;;;;;;;18.40;99.90;;;;;;5009951;28;20280;-74
2022/06/28 08:09:01;;;;;;;;;;;18.60;99.90;;;;;;5008819;28;19924;-74
2022/06/28 08:11:26;;;;;;;;;;;18.60;99.90;;;;;;5010183;28;19932;-73
2022/06/28 08:13:54;;;;;;;;;;;18.50;99.90;;;;;;5027071;28;19917;-73
2022/06/28 08:16:20;;;;;;;;;;;18.20;99.90;;;;;;5007919;28;19928;-73
2022/06/28 08:18:46;;;;;;;;;;;18.30;99.90;;;;;;5010799;28;19953;-73
2022/06/28 08:21:12;;;;;;;;;;;18.40;99.90;;;;;;5010364;28;19921;-73
2022/06/28 08:23:38;;;;;;;;;;;18.60;99.90;;;;;;5007656;28;19921;-73
2022/06/28 08:26:04;;;;;;;;;;;18.80;99.90;;;;;;5010636;28;19917;-73
2022/06/28 08:28:30;;;;;;;;;;;18.90;99.90;;;;;;5010724;28;19927;-73
2022/06/28 08:30:55;;;;;;;;;;;19.00;99.90;;;;;;5007935;28;19967;-73
2022/06/28 08:33:21;;;;;;;;;;;19.00;99.90;;;;;;5010284;28;20287;-73
2022/06/28 08:35:46;;;;;;;;;;;19.20;99.90;;;;;;5026648;28;19921;-73
2022/06/28 08:38:12;;;;;;;;;;;19.40;99.90;;;;;;5009815;28;20016;-73
2022/06/28 08:40:38;;;;;;;;;;;19.40;99.90;;;;;;5007162;28;20275;-73
2022/06/28 08:43:05;;;;;;;;;;;19.70;99.90;;;;;;5021107;28;19918;-73
2022/06/28 08:45:31;;;;;;;;;;;19.90;99.90;;;;;;5010986;28;19960;-73
2022/06/28 08:47:56;;;;;;;;;;;20.00;99.90;;;;;;5012911;28;20422;-73
2022/06/28 08:50:26;;;;;;;;;;;20.20;99.90;;;;;;5013864;28;20382;-73
2022/06/28 08:52:53;;;;;;;;;;;20.20;99.90;;;;;;5014349;28;19980;-73
2022/06/28 08:55:18;;;;;;;;;;;20.40;99.90;;;;;;5013109;28;20351;-73
2022/06/28 08:57:44;;;;;;;;;;;20.40;99.90;;;;;;5012950;28;19975;-73
2022/06/28 09:00:10;;;;;;;;;;;20.60;99.90;;;;;;5012376;28;19928;-73
2022/06/28 09:02:36;;;;;;;;;;;20.60;99.90;;;;;;5012633;28;19921;-73
2022/06/28 09:05:02;;;;;;;;;;;20.60;99.90;;;;;;5013922;28;19972;-73
2022/06/28 09:07:28;;;;;;;;;;;20.80;99.90;;;;;;5014723;28;19978;-73
2022/06/28 09:09:55;;;;;;;;;;;20.90;99.90;;;;;;5030567;28;19921;-73
2022/06/28 09:12:21;;;;;;;;;;;21.00;99.90;;;;;;5013870;28;20295;-73
2022/06/28 09:14:48;;;;;;;;;;;21.10;99.90;;;;;;5011967;28;19918;-73
2022/06/28 09:17:24;;;;;;;;;;;21.20;99.90;;;;;;5013091;28;20419;-73
2022/06/28 09:20:09;;;;;;;;;;;21.10;99.90;;;;;;5009868;28;19927;-73
2022/06/28 09:22:36;;;;;;;;;;;20.80;99.90;;;;;;5013343;28;20303;-73
2022/06/28 09:25:08;;;;;;;;;;;21.00;99.90;;;;;;5013229;28;20359;-73
2022/06/28 09:27:35;;;;;;;;;;;21.00;99.90;;;;;;5012296;28;20404;-73
2022/06/28 09:30:02;;;;;;;;;;;20.80;99.90;;;;;;5011932;28;20423;-73
2022/06/28 09:32:30;;;;;;;;;;;20.70;99.90;;;;;;5012490;28;20398;-73
2022/06/28 09:35:06;;;;;;;;;;;20.70;99.90;;;;;;5008616;28;19961;-73
2022/06/28 09:37:48;;;;;;;;;;;20.70;99.90;;;;;;5011137;28;19921;-73
2022/06/28 09:40:19;;;;;;;;;;;20.70;99.90;;;;;;5012631;28;20379;-72
2022/06/28 09:42:46;;;;;;;;;;;20.50;99.90;;;;;;5011743;28;19918;-72
2022/06/28 09:45:13;;;;;;;;;;;20.40;99.90;;;;;;5014466;28;19916;-72
2022/06/28 09:47:47;;;;;;;;;;;20.50;99.90;;;;;;4997465;28;20564;-72
2022/06/28 09:50:17;;;;;;;;;;;20.70;99.90;;;;;;4981156;28;19921;-73
2022/06/28 09:52:43;;;;;;;;;;;21.00;99.90;;;;;;4973807;28;19921;-73
2022/06/28 09:55:09;;;;;;;;;;;21.20;99.90;;;;;;4996287;28;19932;-73
2022/06/28 09:57:35;;;;;;;;;;;21.30;99.90;;;;;;4995774;28;19921;-72
2022/06/28 10:00:03;;;;;;;;;;;21.70;99.90;;;;;;5024693;28;19922;-73
2022/06/28 10:02:28;;;;;;;;;;;22.00;99.90;;;;;;5020610;28;19917;-73
2022/06/28 10:04:54;;;;;;;;;;;22.40;99.90;;;;;;5014643;28;19917;-73
2022/06/28 10:07:21;;;;;;;;;;;22.60;99.90;;;;;;5014812;28;19921;-73
2022/06/28 10:09:47;;;;;;;;;;;22.50;92.80;;;;;;4995824;28;20415;-73
2022/06/28 10:15:04;;;;;;;;;;;22.60;99.90;;;;;;5006690;28;19929;-73
2022/06/28 10:17:49;;;;;;;;;;;22.50;90.70;;;;;;5010845;28;19975;-73
2022/06/28 10:20:23;;;;;;;;;;;22.30;98.80;;;;;;4996355;28;20287;-73
2022/06/28 10:22:49;;;;;;;;;;;22.40;92.10;;;;;;5012311;28;19917;-73
2022/06/28 10:25:16;;;;;;;;;;;22.20;94.00;;;;;;5010523;28;19923;-72
2022/06/28 10:27:45;;;;;;;;;;;22.10;98.50;;;;;;5011725;28;20004;-71
2022/06/28 10:30:14;;;;;;;;;;;22.20;99.90;;;;;;5011730;28;19971;-72
2022/06/28 10:32:56;;;;;;;;;;;22.50;99.90;;;;;;5006147;28;20047;-73
2022/06/28 10:35:31;;;;;;;;;;;22.70;94.50;;;;;;5011019;28;19945;-72
2022/06/28 10:38:08;;;;;;;;;;;22.90;93.30;;;;;;5009147;28;20375;-72
2022/06/28 10:40:38;;;;;;;;;;;22.30;90.10;;;;;;5011301;28;20284;-73
2022/06/28 10:43:04;;;;;;;;;;;22.30;97.70;;;;;;5011889;28;19940;-72
2022/06/28 10:45:49;;;;;;;;;;;22.60;97.40;;;;;;5011651;28;19917;-72
2022/06/28 10:48:15;;;;;;;;;;;22.80;99.90;;;;;;5011351;28;20063;-73
2022/06/28 10:51:00;;;;;;;;;;;22.20;94.90;;;;;;5010437;28;20008;-73
2022/06/28 10:53:26;;;;;;;;;;;22.50;93.10;;;;;;5008158;28;19925;-73
2022/06/28 10:56:15;;;;;;;;;;;22.40;97.30;;;;;;5010603;28;19960;-72
2022/06/28 10:58:59;;;;;;;;;;;22.80;99.90;;;;;;5027091;28;19970;-72
2022/06/28 11:01:43;;;;;;;;;;;23.10;96.40;;;;;;5010741;28;19928;-72
2022/06/28 11:04:18;;;;;;;;;;;23.20;96.10;;;;;;5011775;28;19943;-72
2022/06/28 11:06:48;;;;;;;;;;;23.40;94.40;;;;;;5008176;28;20467;-72
2022/06/28 11:09:26;;;;;;;;;;;23.50;93.20;;;;;;5010229;28;19928;-73
2022/06/28 11:12:24;;;;;;;;;;;23.70;89.60;;;;;;5003154;28;19931;-73
2022/06/28 11:14:57;;;;;;;;;;;23.30;87.30;;;;;;4989506;28;19926;-73
2022/06/28 11:17:27;;;;;;;;;;;22.90;89.80;;;;;;5004884;28;19921;-73
2022/06/28 11:19:54;;;;;;;;;;;22.70;93.10;;;;;;5008640;28;19928;-73
2022/06/28 11:22:24;;;;;;;;;;;22.70;96.60;;;;;;5009771;28;19918;-73
2022/06/28 11:24:50;;;;;;;;;;;22.70;99.90;;;;;;4995044;28;19917;-73
2022/06/28 11:27:22;;;;;;;;;;;22.70;99.90;;;;;;5010741;28;19924;-72
2022/06/28 11:29:54;;;;;;;;;;;22.70;99.90;;;;;;4991670;28;19917;-73
2022/06/28 11:32:27;;;;;;;;;;;22.50;96.00;;;;;;5010379;28;19928;-73
2022/06/28 11:34:56;;;;;;;;;;;22.60;98.50;;;;;;5010015;28;19929;-73
2022/06/28 11:37:22;;;;;;;;;;;22.60;94.60;;;;;;4993606;28;19917;-73
2022/06/28 11:39:50;;;;;;;;;;;22.50;90.00;;;;;;5003891;28;19917;-73
2022/06/28 11:42:15;;;;;;;;;;;22.60;98.40;;;;;;4992808;28;20028;-73
2022/06/28 11:44:41;;;;;;;;;;;22.80;99.90;;;;;;5012718;28;20023;-73
2022/06/28 11:47:07;;;;;;;;;;;23.10;99.90;;;;;;5008921;28;19917;-73
2022/06/28 11:49:33;;;;;;;;;;;23.30;96.80;;;;;;5000062;28;19929;-73
2022/06/28 11:51:59;;;;;;;;;;;23.30;95.50;;;;;;4989491;28;19921;-73
2022/06/28 11:54:25;;;;;;;;;;;23.60;90.60;;;;;;4995571;28;19961;-73
2022/06/28 11:56:51;;;;;;;;;;;23.90;97.50;;;;;;5003996;28;19928;-73
2022/06/28 11:59:17;;;;;;;;;;;24.10;93.30;;;;;;5008039;28;19968;-73
2022/06/28 12:01:43;;;;;;;;;;;23.90;84.80;;;;;;5008780;28;19948;-73
2022/06/28 12:04:09;;;;;;;;;;;23.80;98.00;;;;;;5005482;28;19917;-73
2022/06/28 12:06:38;;;;;;;;;;;24.10;98.60;;;;;;5010189;28;19929;-73
2022/06/28 12:09:05;;;;;;;;;;;24.50;98.50;;;;;;5007776;28;19975;-73
2022/06/28 12:11:33;;;;;;;;;;;24.80;94.10;;;;;;5007181;28;19924;-73
2022/06/28 12:14:06;;;;;;;;;;;25.00;93.80;;;;;;5005394;28;19990;-71
2022/06/28 12:16:33;;;;;;;;;;;24.90;88.80;;;;;;5007707;28;20016;-73
2022/06/28 12:18:59;;;;;;;;;;;24.70;90.40;;;;;;4993542;28;19928;-73
2022/06/28 12:21:26;;;;;;;;;;;24.60;73.00;;;;;;5009643;28;19917;-73
2022/06/28 12:23:53;;;;;;;;;;;24.80;86.90;;;;;;5011238;28;19972;-73
2022/06/28 12:26:20;;;;;;;;;;;25.00;87.00;;;;;;5010972;28;19984;-73
2022/06/28 12:28:46;;;;;;;;;;;25.10;82.90;;;;;;5026487;28;19961;-73
2022/06/28 12:31:11;;;;;;;;;;;25.10;78.70;;;;;;5011617;28;19956;-73
2022/06/28 12:33:37;;;;;;;;;;;25.10;77.00;;;;;;5012640;28;19917;-72
2022/06/28 12:36:02;;;;;;;;;;;24.80;68.80;;;;;;5012094;28;19921;-72
2022/06/28 12:38:29;;;;;;;;;;;24.80;75.10;;;;;;5011780;28;19937;-72
2022/06/28 12:40:56;;;;;;;;;;;24.60;69.50;;;;;;5007398;28;19917;-71
2022/06/28 12:43:21;;;;;;;;;;;24.90;65.90;;;;;;4997355;28;19925;-72
2022/06/28 12:45:47;;;;;;;;;;;25.10;66.30;;;;;;5012427;28;20283;-72
2022/06/28 12:48:12;;;;;;;;;;;25.10;71.30;;;;;;5019015;28;19964;-72
2022/06/28 12:50:38;;;;;;;;;;;25.10;79.50;;;;;;5017837;28;19924;-72
2022/06/28 12:53:03;;;;;;;;;;;25.20;77.60;;;;;;5017145;28;19917;-72
2022/06/28 12:55:29;;;;;;;;;;;25.10;64.20;;;;;;5012883;28;19937;-72
2022/06/28 12:57:54;;;;;;;;;;;25.00;69.70;;;;;;5015231;28;20009;-72
2022/06/28 13:00:20;;;;;;;;;;;24.90;67.70;;;;;;5010950;28;19918;-72
2022/06/28 13:02:46;;;;;;;;;;;25.20;76.90;;;;;;5001300;28;19918;-72
2022/06/28 13:05:11;;;;;;;;;;;25.20;71.50;;;;;;5019783;28;19967;-72
2022/06/28 13:07:41;;;;;;;;;;;25.40;69.90;;;;;;5006955;28;19932;-72
2022/06/28 13:10:10;;;;;;;;;;;25.60;71.70;;;;;;5007616;28;19918;-71
2022/06/28 13:12:36;;;;;;;;;;;25.80;68.90;;;;;;5017429;28;19928;-71
2022/06/28 13:15:02;;;;;;;;;;;25.70;71.80;;;;;;5000287;28;19925;-72
2022/06/28 13:17:27;;;;;;;;;;;25.60;71.10;;;;;;5027130;28;19921;-72
2022/06/28 13:19:53;;;;;;;;;;;25.60;80.20;;;;;;5015181;28;20063;-71
2022/06/28 13:22:19;;;;;;;;;;;25.80;66.60;;;;;;5014867;28;20008;-72
2022/06/28 13:24:45;;;;;;;;;;;26.00;70.90;;;;;;5012907;28;19921;-72
2022/06/28 13:27:10;;;;;;;;;;;26.30;67.30;;;;;;5013648;28;19917;-72
2022/06/28 13:29:36;;;;;;;;;;;26.10;64.70;;;;;;5011450;28;19921;-72
2022/06/28 13:32:01;;;;;;;;;;;25.90;62.50;;;;;;5011153;28;19917;-71
2022/06/28 13:34:28;;;;;;;;;;;25.80;73.80;;;;;;5032155;28;19917;-72
2022/06/28 13:36:53;;;;;;;;;;;25.60;67.00;;;;;;5014104;28;19996;-72
2022/06/28 13:39:19;;;;;;;;;;;25.90;75.90;;;;;;4998816;28;20038;-72
2022/06/28 13:41:45;;;;;;;;;;;26.40;75.60;;;;;;5039322;28;19983;-72
2022/06/28 13:44:12;;;;;;;;;;;26.50;67.40;;;;;;5013824;28;19921;-72
2022/06/28 13:46:38;;;;;;;;;;;26.80;65.50;;;;;;5014770;28;19925;-72
2022/06/28 13:49:03;;;;;;;;;;;26.80;61.70;;;;;;5028834;28;19925;-72
2022/06/28 13:51:31;;;;;;;;;;;26.90;62.70;;;;;;5004255;28;20036;-72
2022/06/28 13:53:56;;;;;;;;;;;26.80;59.80;;;;;;5012481;28;19917;-72
2022/06/28 13:56:22;;;;;;;;;;;26.70;61.60;;;;;;5012397;28;19928;-72
2022/06/28 13:58:48;;;;;;;;;;;26.60;63.00;;;;;;5015872;28;19917;-72
2022/06/28 14:01:13;;;;;;;;;;;26.30;65.20;;;;;;5016046;28;19921;-72
2022/06/28 14:03:39;;;;;;;;;;;26.10;65.20;;;;;;5012168;28;20629;-72
2022/06/28 14:06:05;;;;;;;;;;;26.00;72.50;;;;;;5009538;28;19936;-72
2022/06/28 14:08:30;;;;;;;;;;;26.40;65.70;;;;;;5012729;28;19921;-72
2022/06/28 14:10:56;;;;;;;;;;;26.60;65.60;;;;;;5017324;28;19999;-72
2022/06/28 14:13:22;;;;;;;;;;;26.80;63.70;;;;;;5014677;28;20064;-72
2022/06/28 14:15:48;;;;;;;;;;;26.60;62.10;;;;;;5011522;28;19928;-72
2022/06/28 14:18:14;;;;;;;;;;;26.40;64.70;;;;;;5005909;28;19921;-72
2022/06/28 14:20:39;;;;;;;;;;;26.20;66.80;;;;;;5014541;28;19944;-72
2022/06/28 14:23:05;;;;;;;;;;;26.00;61.40;;;;;;4988489;28;19922;-72
2022/06/28 14:25:30;;;;;;;;;;;25.70;61.80;;;;;;5009727;28;19979;-72